sensor_id;sensor_type;location;lat;lon;timestamp;P1;durP1;ratioP1;P2;durP2;ratioP2
45893;SDS011;31603;51.148;16.932;2022-09-12T00:01:34;14.73;;;10.20;;
45893;SDS011;31603;51.148;16.932;2022-09-12T00:04:01;14.10;;;9.88;;
45893;SDS011;31603;51.148;16.932;2022-09-12T00:06:29;14.40;;;9.43;;
45893;SDS011;31603;51.148;16.932;2022-09-12T00:08:58;9.95;;;7.72;;
45893;SDS011;31603;51.148;16.932;2022-09-12T00:11:26;13.10;;;8.52;;
45893;SDS011;31603;51.148;16.932;2022-09-12T00:13:54;11.85;;;8.20;;
45893;SDS011;31603;51.148;16.932;2022-09-12T00:16:23;9.60;;;7.70;;
45893;SDS011;31603;51.148;16.932;2022-09-12T00:18:51;9.00;;;7.97;;
45893;SDS011;31603;51.148;16.932;2022-09-12T00:21:18;10.40;;;7.65;;
45893;SDS011;31603;51.148;16.932;2022-09-12T00:23:46;10.45;;;6.90;;
45893;SDS011;31603;51.148;16.932;2022-09-12T00:26:14;10.15;;;7.25;;
45893;SDS011;31603;51.148;16.932;2022-09-12T00:28:41;10.43;;;7.80;;
45893;SDS011;31603;51.148;16.932;2022-09-12T00:31:08;8.20;;;6.63;;
45893;SDS011;31603;51.148;16.932;2022-09-12T00:33:40;9.45;;;6.45;;
45893;SDS011;31603;51.148;16.932;2022-09-12T00:36:08;11.48;;;7.20;;
45893;SDS011;31603;51.148;16.932;2022-09-12T00:38:36;8.98;;;6.70;;
45893;SDS011;31603;51.148;16.932;2022-09-12T00:41:05;13.65;;;7.20;;
45893;SDS011;31603;51.148;16.932;2022-09-12T00:43:37;9.05;;;6.78;;
45893;SDS011;31603;51.148;16.932;2022-09-12T00:46:06;8.55;;;6.05;;
45893;SDS011;31603;51.148;16.932;2022-09-12T00:48:43;10.75;;;6.65;;
45893;SDS011;31603;51.148;16.932;2022-09-12T00:51:15;8.57;;;5.80;;
45893;SDS011;31603;51.148;16.932;2022-09-12T00:53:42;10.38;;;6.35;;
45893;SDS011;31603;51.148;16.932;2022-09-12T00:56:11;10.73;;;7.20;;
45893;SDS011;31603;51.148;16.932;2022-09-12T00:58:43;10.43;;;6.33;;
45893;SDS011;31603;51.148;16.932;2022-09-12T01:01:16;9.85;;;6.82;;
45893;SDS011;31603;51.148;16.932;2022-09-12T01:03:44;9.55;;;6.35;;
45893;SDS011;31603;51.148;16.932;2022-09-12T01:06:11;7.13;;;6.18;;
45893;SDS011;31603;51.148;16.932;2022-09-12T01:08:42;8.40;;;6.40;;
45893;SDS011;31603;51.148;16.932;2022-09-12T01:11:10;10.70;;;6.18;;
45893;SDS011;31603;51.148;16.932;2022-09-12T01:13:37;9.02;;;6.07;;
45893;SDS011;31603;51.148;16.932;2022-09-12T01:16:04;9.07;;;6.50;;
45893;SDS011;31603;51.148;16.932;2022-09-12T01:18:34;7.20;;;5.65;;
45893;SDS011;31603;51.148;16.932;2022-09-12T01:21:14;9.75;;;5.95;;
45893;SDS011;31603;51.148;16.932;2022-09-12T01:23:55;7.65;;;5.97;;
45893;SDS011;31603;51.148;16.932;2022-09-12T01:26:46;9.25;;;5.90;;
45893;SDS011;31603;51.148;16.932;2022-09-12T01:29:34;7.40;;;5.60;;
45893;SDS011;31603;51.148;16.932;2022-09-12T01:32:20;7.03;;;4.95;;
45893;SDS011;31603;51.148;16.932;2022-09-12T01:34:56;6.55;;;5.18;;
45893;SDS011;31603;51.148;16.932;2022-09-12T01:37:33;10.68;;;5.80;;
45893;SDS011;31603;51.148;16.932;2022-09-12T01:40:06;8.77;;;5.30;;
45893;SDS011;31603;51.148;16.932;2022-09-12T01:42:40;8.25;;;6.18;;
45893;SDS011;31603;51.148;16.932;2022-09-12T01:45:14;6.65;;;5.10;;
45893;SDS011;31603;51.148;16.932;2022-09-12T01:47:45;11.32;;;5.90;;
45893;SDS011;31603;51.148;16.932;2022-09-12T01:50:17;8.88;;;5.68;;
45893;SDS011;31603;51.148;16.932;2022-09-12T01:52:47;9.25;;;5.20;;
45893;SDS011;31603;51.148;16.932;2022-09-12T01:55:18;8.68;;;5.22;;
45893;SDS011;31603;51.148;16.932;2022-09-12T01:57:50;7.63;;;5.78;;
45893;SDS011;31603;51.148;16.932;2022-09-12T02:00:21;9.40;;;5.40;;
45893;SDS011;31603;51.148;16.932;2022-09-12T02:02:50;8.38;;;5.13;;
45893;SDS011;31603;51.148;16.932;2022-09-12T02:05:22;9.98;;;5.88;;
45893;SDS011;31603;51.148;16.932;2022-09-12T02:07:55;8.82;;;6.05;;
45893;SDS011;31603;51.148;16.932;2022-09-12T02:10:28;7.90;;;4.97;;
45893;SDS011;31603;51.148;16.932;2022-09-12T02:12:57;7.40;;;5.63;;
45893;SDS011;31603;51.148;16.932;2022-09-12T02:15:29;7.20;;;5.38;;
45893;SDS011;31603;51.148;16.932;2022-09-12T02:18:00;8.20;;;5.40;;
45893;SDS011;31603;51.148;16.932;2022-09-12T02:20:32;9.03;;;5.10;;
45893;SDS011;31603;51.148;16.932;2022-09-12T02:23:01;8.68;;;5.60;;
45893;SDS011;31603;51.148;16.932;2022-09-12T02:25:32;8.70;;;5.15;;
45893;SDS011;31603;51.148;16.932;2022-09-12T02:28:00;9.93;;;5.78;;
45893;SDS011;31603;51.148;16.932;2022-09-12T02:30:34;8.63;;;5.57;;
45893;SDS011;31603;51.148;16.932;2022-09-12T02:33:06;8.57;;;5.72;;
45893;SDS011;31603;51.148;16.932;2022-09-12T02:35:41;7.78;;;5.82;;
45893;SDS011;31603;51.148;16.932;2022-09-12T02:38:14;8.68;;;6.40;;
45893;SDS011;31603;51.148;16.932;2022-09-12T02:40:48;8.55;;;6.18;;
45893;SDS011;31603;51.148;16.932;2022-09-12T02:43:15;8.73;;;5.88;;
45893;SDS011;31603;51.148;16.932;2022-09-12T02:45:42;7.60;;;6.00;;
45893;SDS011;31603;51.148;16.932;2022-09-12T02:48:11;10.15;;;5.97;;
45893;SDS011;31603;51.148;16.932;2022-09-12T02:50:41;10.00;;;6.47;;
45893;SDS011;31603;51.148;16.932;2022-09-12T02:53:08;7.85;;;6.32;;
45893;SDS011;31603;51.148;16.932;2022-09-12T02:55:36;10.93;;;6.95;;
45893;SDS011;31603;51.148;16.932;2022-09-12T02:58:05;9.45;;;6.30;;
45893;SDS011;31603;51.148;16.932;2022-09-12T03:00:36;8.95;;;5.75;;
45893;SDS011;31603;51.148;16.932;2022-09-12T03:03:22;9.57;;;6.10;;
45893;SDS011;31603;51.148;16.932;2022-09-12T03:06:00;11.32;;;6.78;;
45893;SDS011;31603;51.148;16.932;2022-09-12T03:08:45;11.27;;;7.40;;
45893;SDS011;31603;51.148;16.932;2022-09-12T03:11:24;8.98;;;6.43;;
45893;SDS011;31603;51.148;16.932;2022-09-12T03:13:59;11.05;;;6.30;;
45893;SDS011;31603;51.148;16.932;2022-09-12T03:16:32;8.38;;;6.13;;
45893;SDS011;31603;51.148;16.932;2022-09-12T03:19:08;11.55;;;7.53;;
45893;SDS011;31603;51.148;16.932;2022-09-12T03:21:44;9.25;;;6.88;;
45893;SDS011;31603;51.148;16.932;2022-09-12T03:24:17;12.35;;;6.97;;
45893;SDS011;31603;51.148;16.932;2022-09-12T03:26:47;9.18;;;6.35;;
45893;SDS011;31603;51.148;16.932;2022-09-12T03:29:18;13.13;;;6.85;;
45893;SDS011;31603;51.148;16.932;2022-09-12T03:31:49;10.32;;;7.30;;
45893;SDS011;31603;51.148;16.932;2022-09-12T03:34:18;10.35;;;7.25;;
45893;SDS011;31603;51.148;16.932;2022-09-12T03:36:45;7.07;;;6.07;;
45893;SDS011;31603;51.148;16.932;2022-09-12T03:39:12;14.20;;;7.75;;
45893;SDS011;31603;51.148;16.932;2022-09-12T03:41:38;8.80;;;6.18;;
45893;SDS011;31603;51.148;16.932;2022-09-12T03:44:05;14.43;;;7.93;;
45893;SDS011;31603;51.148;16.932;2022-09-12T03:46:32;14.32;;;7.50;;
45893;SDS011;31603;51.148;16.932;2022-09-12T03:48:58;10.20;;;7.03;;
45893;SDS011;31603;51.148;16.932;2022-09-12T03:51:26;13.65;;;7.40;;
45893;SDS011;31603;51.148;16.932;2022-09-12T03:53:53;9.60;;;6.53;;
45893;SDS011;31603;51.148;16.932;2022-09-12T03:56:19;11.13;;;7.50;;
45893;SDS011;31603;51.148;16.932;2022-09-12T03:58:46;10.05;;;7.00;;
45893;SDS011;31603;51.148;16.932;2022-09-12T04:01:13;12.93;;;7.90;;
45893;SDS011;31603;51.148;16.932;2022-09-12T04:03:41;9.48;;;7.97;;
45893;SDS011;31603;51.148;16.932;2022-09-12T04:06:08;11.13;;;7.72;;
45893;SDS011;31603;51.148;16.932;2022-09-12T04:08:38;10.15;;;6.93;;
45893;SDS011;31603;51.148;16.932;2022-09-12T04:11:04;10.38;;;6.97;;
45893;SDS011;31603;51.148;16.932;2022-09-12T04:13:33;11.85;;;7.97;;
45893;SDS011;31603;51.148;16.932;2022-09-12T04:16:01;10.52;;;7.30;;
45893;SDS011;31603;51.148;16.932;2022-09-12T04:18:29;12.48;;;9.10;;
45893;SDS011;31603;51.148;16.932;2022-09-12T04:20:57;11.32;;;7.15;;
45893;SDS011;31603;51.148;16.932;2022-09-12T04:23:23;11.77;;;7.15;;
45893;SDS011;31603;51.148;16.932;2022-09-12T04:25:54;8.68;;;6.70;;
45893;SDS011;31603;51.148;16.932;2022-09-12T04:28:23;13.32;;;8.65;;
45893;SDS011;31603;51.148;16.932;2022-09-12T04:30:50;12.13;;;8.40;;
45893;SDS011;31603;51.148;16.932;2022-09-12T04:33:16;11.00;;;7.75;;
45893;SDS011;31603;51.148;16.932;2022-09-12T04:35:43;11.25;;;8.02;;
45893;SDS011;31603;51.148;16.932;2022-09-12T04:38:10;11.77;;;8.05;;
45893;SDS011;31603;51.148;16.932;2022-09-12T04:40:37;13.07;;;8.82;;
45893;SDS011;31603;51.148;16.932;2022-09-12T04:43:05;11.57;;;7.47;;
45893;SDS011;31603;51.148;16.932;2022-09-12T04:45:31;10.30;;;7.40;;
45893;SDS011;31603;51.148;16.932;2022-09-12T04:47:58;11.98;;;8.93;;
45893;SDS011;31603;51.148;16.932;2022-09-12T04:50:25;11.43;;;7.05;;
45893;SDS011;31603;51.148;16.932;2022-09-12T04:52:52;10.13;;;6.90;;
45893;SDS011;31603;51.148;16.932;2022-09-12T04:55:19;13.75;;;8.88;;
45893;SDS011;31603;51.148;16.932;2022-09-12T04:57:46;10.98;;;8.05;;
45893;SDS011;31603;51.148;16.932;2022-09-12T05:00:14;13.18;;;8.98;;
45893;SDS011;31603;51.148;16.932;2022-09-12T05:02:41;14.05;;;7.35;;
45893;SDS011;31603;51.148;16.932;2022-09-12T05:05:08;9.70;;;7.78;;
45893;SDS011;31603;51.148;16.932;2022-09-12T05:07:35;12.05;;;8.40;;
45893;SDS011;31603;51.148;16.932;2022-09-12T05:10:02;10.90;;;8.73;;
45893;SDS011;31603;51.148;16.932;2022-09-12T05:12:29;10.13;;;7.72;;
45893;SDS011;31603;51.148;16.932;2022-09-12T05:14:55;13.82;;;9.15;;
45893;SDS011;31603;51.148;16.932;2022-09-12T05:17:23;13.27;;;7.20;;
45893;SDS011;31603;51.148;16.932;2022-09-12T05:19:50;14.40;;;8.07;;
45893;SDS011;31603;51.148;16.932;2022-09-12T05:22:16;10.43;;;6.68;;
45893;SDS011;31603;51.148;16.932;2022-09-12T05:24:43;10.93;;;7.68;;
45893;SDS011;31603;51.148;16.932;2022-09-12T05:27:09;8.80;;;7.30;;
45893;SDS011;31603;51.148;16.932;2022-09-12T05:29:35;10.93;;;8.00;;
45893;SDS011;31603;51.148;16.932;2022-09-12T05:32:02;16.35;;;11.63;;
45893;SDS011;31603;51.148;16.932;2022-09-12T05:34:30;10.75;;;8.38;;
45893;SDS011;31603;51.148;16.932;2022-09-12T05:36:56;8.18;;;6.22;;
45893;SDS011;31603;51.148;16.932;2022-09-12T05:39:23;9.57;;;6.72;;
45893;SDS011;31603;51.148;16.932;2022-09-12T05:41:49;11.95;;;7.22;;
45893;SDS011;31603;51.148;16.932;2022-09-12T05:44:16;7.95;;;6.93;;
45893;SDS011;31603;51.148;16.932;2022-09-12T05:46:43;10.95;;;6.75;;
45893;SDS011;31603;51.148;16.932;2022-09-12T05:49:11;8.30;;;7.00;;
45893;SDS011;31603;51.148;16.932;2022-09-12T05:51:40;9.23;;;6.78;;
45893;SDS011;31603;51.148;16.932;2022-09-12T05:54:09;9.98;;;7.80;;
45893;SDS011;31603;51.148;16.932;2022-09-12T05:56:37;11.55;;;7.80;;
45893;SDS011;31603;51.148;16.932;2022-09-12T05:59:05;8.85;;;6.13;;
45893;SDS011;31603;51.148;16.932;2022-09-12T06:01:34;8.68;;;6.47;;
45893;SDS011;31603;51.148;16.932;2022-09-12T06:04:02;9.68;;;6.20;;
45893;SDS011;31603;51.148;16.932;2022-09-12T06:06:30;11.52;;;7.00;;
45893;SDS011;31603;51.148;16.932;2022-09-12T06:09:02;9.45;;;6.82;;
45893;SDS011;31603;51.148;16.932;2022-09-12T06:11:30;11.60;;;6.38;;
45893;SDS011;31603;51.148;16.932;2022-09-12T06:13:59;8.57;;;6.20;;
45893;SDS011;31603;51.148;16.932;2022-09-12T06:16:26;10.57;;;6.22;;
45893;SDS011;31603;51.148;16.932;2022-09-12T06:18:55;7.22;;;5.10;;
45893;SDS011;31603;51.148;16.932;2022-09-12T06:21:23;10.68;;;5.72;;
45893;SDS011;31603;51.148;16.932;2022-09-12T06:23:52;8.38;;;5.35;;
45893;SDS011;31603;51.148;16.932;2022-09-12T06:26:20;9.95;;;5.43;;
45893;SDS011;31603;51.148;16.932;2022-09-12T06:28:49;6.28;;;5.05;;
45893;SDS011;31603;51.148;16.932;2022-09-12T06:31:17;9.95;;;5.50;;
45893;SDS011;31603;51.148;16.932;2022-09-12T06:33:45;7.95;;;4.38;;
45893;SDS011;31603;51.148;16.932;2022-09-12T06:36:14;8.65;;;5.38;;
45893;SDS011;31603;51.148;16.932;2022-09-12T06:38:43;7.35;;;4.85;;
45893;SDS011;31603;51.148;16.932;2022-09-12T06:41:11;9.50;;;5.18;;
45893;SDS011;31603;51.148;16.932;2022-09-12T06:43:39;8.38;;;4.90;;
45893;SDS011;31603;51.148;16.932;2022-09-12T06:46:07;6.80;;;4.30;;
45893;SDS011;31603;51.148;16.932;2022-09-12T06:48:34;6.22;;;3.70;;
45893;SDS011;31603;51.148;16.932;2022-09-12T06:51:01;8.88;;;3.90;;
45893;SDS011;31603;51.148;16.932;2022-09-12T06:53:29;5.25;;;3.80;;
45893;SDS011;31603;51.148;16.932;2022-09-12T06:55:58;8.05;;;4.18;;
45893;SDS011;31603;51.148;16.932;2022-09-12T06:58:26;6.07;;;3.45;;
45893;SDS011;31603;51.148;16.932;2022-09-12T07:01:00;5.38;;;3.85;;
45893;SDS011;31603;51.148;16.932;2022-09-12T07:03:28;7.70;;;4.15;;
45893;SDS011;31603;51.148;16.932;2022-09-12T07:05:55;6.18;;;3.85;;
45893;SDS011;31603;51.148;16.932;2022-09-12T07:08:22;11.48;;;3.92;;
45893;SDS011;31603;51.148;16.932;2022-09-12T07:10:48;5.50;;;3.30;;
45893;SDS011;31603;51.148;16.932;2022-09-12T07:13:15;5.47;;;3.15;;
45893;SDS011;31603;51.148;16.932;2022-09-12T07:15:41;8.38;;;3.20;;
45893;SDS011;31603;51.148;16.932;2022-09-12T07:18:09;4.82;;;2.78;;
45893;SDS011;31603;51.148;16.932;2022-09-12T07:20:35;5.40;;;2.78;;
45893;SDS011;31603;51.148;16.932;2022-09-12T07:23:03;4.65;;;2.58;;
45893;SDS011;31603;51.148;16.932;2022-09-12T07:25:29;5.55;;;2.60;;
45893;SDS011;31603;51.148;16.932;2022-09-12T07:27:56;6.78;;;2.85;;
45893;SDS011;31603;51.148;16.932;2022-09-12T07:30:22;5.35;;;2.72;;
45893;SDS011;31603;51.148;16.932;2022-09-12T07:32:50;4.55;;;2.08;;
45893;SDS011;31603;51.148;16.932;2022-09-12T07:35:18;7.95;;;2.10;;
45893;SDS011;31603;51.148;16.932;2022-09-12T07:37:45;8.18;;;2.10;;
45893;SDS011;31603;51.148;16.932;2022-09-12T07:40:11;4.20;;;2.20;;
45893;SDS011;31603;51.148;16.932;2022-09-12T07:42:38;4.57;;;2.17;;
45893;SDS011;31603;51.148;16.932;2022-09-12T07:45:05;4.45;;;2.10;;
45893;SDS011;31603;51.148;16.932;2022-09-12T07:47:32;8.27;;;2.45;;
45893;SDS011;31603;51.148;16.932;2022-09-12T07:49:58;5.18;;;1.77;;
45893;SDS011;31603;51.148;16.932;2022-09-12T07:52:26;6.30;;;2.28;;
45893;SDS011;31603;51.148;16.932;2022-09-12T07:54:53;5.65;;;2.10;;
45893;SDS011;31603;51.148;16.932;2022-09-12T07:57:19;6.75;;;2.55;;
45893;SDS011;31603;51.148;16.932;2022-09-12T07:59:46;5.43;;;2.25;;
45893;SDS011;31603;51.148;16.932;2022-09-12T08:02:13;7.15;;;2.92;;
45893;SDS011;31603;51.148;16.932;2022-09-12T08:04:41;4.32;;;2.10;;
45893;SDS011;31603;51.148;16.932;2022-09-12T08:07:08;4.88;;;1.98;;
45893;SDS011;31603;51.148;16.932;2022-09-12T08:09:36;4.68;;;2.72;;
45893;SDS011;31603;51.148;16.932;2022-09-12T08:12:02;5.15;;;1.83;;
45893;SDS011;31603;51.148;16.932;2022-09-12T08:14:29;4.25;;;2.03;;
45893;SDS011;31603;51.148;16.932;2022-09-12T08:16:56;6.32;;;2.85;;
45893;SDS011;31603;51.148;16.932;2022-09-12T08:19:22;4.22;;;2.40;;
45893;SDS011;31603;51.148;16.932;2022-09-12T08:21:48;6.22;;;2.28;;
45893;SDS011;31603;51.148;16.932;2022-09-12T08:24:15;7.20;;;2.55;;
45893;SDS011;31603;51.148;16.932;2022-09-12T08:26:43;4.63;;;2.08;;
45893;SDS011;31603;51.148;16.932;2022-09-12T08:29:10;6.03;;;2.45;;
45893;SDS011;31603;51.148;16.932;2022-09-12T08:31:36;4.82;;;2.70;;
45893;SDS011;31603;51.148;16.932;2022-09-12T08:34:03;5.57;;;2.50;;
45893;SDS011;31603;51.148;16.932;2022-09-12T08:36:30;3.55;;;2.10;;
45893;SDS011;31603;51.148;16.932;2022-09-12T08:38:58;4.85;;;2.58;;
45893;SDS011;31603;51.148;16.932;2022-09-12T08:41:28;5.07;;;2.65;;
45893;SDS011;31603;51.148;16.932;2022-09-12T08:44:00;7.30;;;2.60;;
45893;SDS011;31603;51.148;16.932;2022-09-12T08:46:55;5.07;;;2.90;;
45893;SDS011;31603;51.148;16.932;2022-09-12T08:49:47;5.03;;;2.90;;
45893;SDS011;31603;51.148;16.932;2022-09-12T08:52:21;6.40;;;3.10;;
45893;SDS011;31603;51.148;16.932;2022-09-12T08:54:52;5.88;;;2.80;;
45893;SDS011;31603;51.148;16.932;2022-09-12T08:57:20;2.90;;;2.50;;
45893;SDS011;31603;51.148;16.932;2022-09-12T08:59:50;5.25;;;2.60;;
45893;SDS011;31603;51.148;16.932;2022-09-12T09:02:23;7.50;;;2.90;;
45893;SDS011;31603;51.148;16.932;2022-09-12T09:05:04;7.97;;;3.15;;
45893;SDS011;31603;51.148;16.932;2022-09-12T09:10:42;4.25;;;2.70;;
45893;SDS011;31603;51.148;16.932;2022-09-12T09:13:20;5.65;;;3.22;;
45893;SDS011;31603;51.148;16.932;2022-09-12T09:16:16;5.53;;;3.08;;
45893;SDS011;31603;51.148;16.932;2022-09-12T09:18:49;6.60;;;2.90;;
45893;SDS011;31603;51.148;16.932;2022-09-12T09:21:19;3.28;;;2.38;;
45893;SDS011;31603;51.148;16.932;2022-09-12T09:23:53;4.40;;;2.63;;
45893;SDS011;31603;51.148;16.932;2022-09-12T09:26:25;4.13;;;2.55;;
45893;SDS011;31603;51.148;16.932;2022-09-12T09:28:56;4.68;;;2.42;;
45893;SDS011;31603;51.148;16.932;2022-09-12T09:31:29;4.75;;;2.28;;
45893;SDS011;31603;51.148;16.932;2022-09-12T09:34:04;3.17;;;2.08;;
45893;SDS011;31603;51.148;16.932;2022-09-12T09:36:41;3.47;;;2.30;;
45893;SDS011;31603;51.148;16.932;2022-09-12T09:39:17;5.20;;;2.45;;
45893;SDS011;31603;51.148;16.932;2022-09-12T09:41:52;4.65;;;2.70;;
45893;SDS011;31603;51.148;16.932;2022-09-12T09:44:34;3.58;;;2.38;;
45893;SDS011;31603;51.148;16.932;2022-09-12T09:47:02;4.60;;;2.22;;
45893;SDS011;31603;51.148;16.932;2022-09-12T09:49:29;3.53;;;2.67;;
45893;SDS011;31603;51.148;16.932;2022-09-12T09:51:59;5.63;;;2.80;;
45893;SDS011;31603;51.148;16.932;2022-09-12T09:54:27;4.60;;;2.80;;
45893;SDS011;31603;51.148;16.932;2022-09-12T09:56:59;3.97;;;2.20;;
45893;SDS011;31603;51.148;16.932;2022-09-12T09:59:26;4.65;;;2.00;;
45893;SDS011;31603;51.148;16.932;2022-09-12T10:01:55;3.55;;;2.33;;
45893;SDS011;31603;51.148;16.932;2022-09-12T10:04:29;4.75;;;1.67;;
45893;SDS011;31603;51.148;16.932;2022-09-12T10:06:57;4.07;;;1.88;;
45893;SDS011;31603;51.148;16.932;2022-09-12T10:09:26;4.60;;;2.38;;
45893;SDS011;31603;51.148;16.932;2022-09-12T10:11:55;4.13;;;2.47;;
45893;SDS011;31603;51.148;16.932;2022-09-12T10:14:27;5.00;;;2.17;;
45893;SDS011;31603;51.148;16.932;2022-09-12T10:17:00;4.80;;;2.20;;
45893;SDS011;31603;51.148;16.932;2022-09-12T10:19:36;3.38;;;1.90;;
45893;SDS011;31603;51.148;16.932;2022-09-12T10:22:04;4.82;;;2.22;;
45893;SDS011;31603;51.148;16.932;2022-09-12T10:24:32;2.92;;;2.03;;
45893;SDS011;31603;51.148;16.932;2022-09-12T10:27:06;4.70;;;3.15;;
45893;SDS011;31603;51.148;16.932;2022-09-12T10:29:39;6.68;;;2.70;;
45893;SDS011;31603;51.148;16.932;2022-09-12T10:32:12;2.78;;;1.55;;
45893;SDS011;31603;51.148;16.932;2022-09-12T10:34:50;3.80;;;2.00;;
45893;SDS011;31603;51.148;16.932;2022-09-12T10:37:22;4.18;;;1.90;;
45893;SDS011;31603;51.148;16.932;2022-09-12T10:39:52;3.10;;;2.00;;
45893;SDS011;31603;51.148;16.932;2022-09-12T10:45:16;6.20;;;2.25;;
45893;SDS011;31603;51.148;16.932;2022-09-12T10:47:45;4.05;;;2.00;;
45893;SDS011;31603;51.148;16.932;2022-09-12T10:50:23;4.75;;;1.83;;
45893;SDS011;31603;51.148;16.932;2022-09-12T10:52:52;5.78;;;1.83;;
45893;SDS011;31603;51.148;16.932;2022-09-12T10:55:20;9.90;;;2.13;;
45893;SDS011;31603;51.148;16.932;2022-09-12T10:57:59;3.05;;;2.17;;
45893;SDS011;31603;51.148;16.932;2022-09-12T11:00:39;3.65;;;1.73;;
45893;SDS011;31603;51.148;16.932;2022-09-12T11:03:14;3.33;;;1.40;;
45893;SDS011;31603;51.148;16.932;2022-09-12T11:05:53;2.53;;;1.52;;
45893;SDS011;31603;51.148;16.932;2022-09-12T11:08:26;3.80;;;1.90;;
45893;SDS011;31603;51.148;16.932;2022-09-12T11:11:03;3.03;;;1.65;;
45893;SDS011;31603;51.148;16.932;2022-09-12T11:13:41;9.43;;;1.95;;
45893;SDS011;31603;51.148;16.932;2022-09-12T11:16:19;4.68;;;2.38;;
45893;SDS011;31603;51.148;16.932;2022-09-12T11:19:00;2.65;;;1.45;;
45893;SDS011;31603;51.148;16.932;2022-09-12T11:21:42;3.20;;;1.55;;
45893;SDS011;31603;51.148;16.932;2022-09-12T11:24:20;3.22;;;2.05;;
45893;SDS011;31603;51.148;16.932;2022-09-12T11:26:59;4.35;;;1.60;;
45893;SDS011;31603;51.148;16.932;2022-09-12T11:29:40;1.95;;;1.58;;
45893;SDS011;31603;51.148;16.932;2022-09-12T11:32:22;3.17;;;1.58;;
45893;SDS011;31603;51.148;16.932;2022-09-12T11:35:03;3.67;;;1.25;;
45893;SDS011;31603;51.148;16.932;2022-09-12T11:37:43;1.88;;;1.40;;
45893;SDS011;31603;51.148;16.932;2022-09-12T11:40:26;2.45;;;1.58;;
45893;SDS011;31603;51.148;16.932;2022-09-12T11:42:58;3.45;;;1.90;;
45893;SDS011;31603;51.148;16.932;2022-09-12T11:45:29;3.22;;;1.75;;
45893;SDS011;31603;51.148;16.932;2022-09-12T11:48:03;3.55;;;2.10;;
45893;SDS011;31603;51.148;16.932;2022-09-12T11:50:33;4.38;;;1.73;;
45893;SDS011;31603;51.148;16.932;2022-09-12T11:53:02;3.03;;;1.63;;
45893;SDS011;31603;51.148;16.932;2022-09-12T11:55:38;3.22;;;1.90;;
45893;SDS011;31603;51.148;16.932;2022-09-12T11:58:14;2.10;;;1.73;;
45893;SDS011;31603;51.148;16.932;2022-09-12T12:00:42;4.03;;;1.98;;
45893;SDS011;31603;51.148;16.932;2022-09-12T12:03:13;3.85;;;1.70;;
45893;SDS011;31603;51.148;16.932;2022-09-12T12:05:44;2.10;;;1.65;;
45893;SDS011;31603;51.148;16.932;2022-09-12T12:08:18;3.90;;;1.95;;
45893;SDS011;31603;51.148;16.932;2022-09-12T12:10:47;4.65;;;1.73;;
45893;SDS011;31603;51.148;16.932;2022-09-12T12:13:19;5.47;;;2.40;;
45893;SDS011;31603;51.148;16.932;2022-09-12T12:15:51;3.40;;;2.40;;
45893;SDS011;31603;51.148;16.932;2022-09-12T12:18:22;3.80;;;1.92;;
45893;SDS011;31603;51.148;16.932;2022-09-12T12:20:50;3.55;;;2.03;;
45893;SDS011;31603;51.148;16.932;2022-09-12T12:23:23;2.92;;;1.85;;
45893;SDS011;31603;51.148;16.932;2022-09-12T12:25:53;2.90;;;1.95;;
45893;SDS011;31603;51.148;16.932;2022-09-12T12:31:24;3.28;;;1.70;;
45893;SDS011;31603;51.148;16.932;2022-09-12T12:33:51;3.92;;;1.65;;
45893;SDS011;31603;51.148;16.932;2022-09-12T12:36:31;5.53;;;1.60;;
45893;SDS011;31603;51.148;16.932;2022-09-12T12:39:53;3.15;;;1.70;;
45893;SDS011;31603;51.148;16.932;2022-09-12T12:45:46;1.90;;;1.50;;
45893;SDS011;31603;51.148;16.932;2022-09-12T12:51:34;2.35;;;1.42;;
45893;SDS011;31603;51.148;16.932;2022-09-12T12:54:04;4.57;;;1.73;;
45893;SDS011;31603;51.148;16.932;2022-09-12T12:57:00;3.63;;;1.73;;
45893;SDS011;31603;51.148;16.932;2022-09-12T12:59:29;3.40;;;1.73;;
45893;SDS011;31603;51.148;16.932;2022-09-12T13:01:57;3.30;;;1.70;;
45893;SDS011;31603;51.148;16.932;2022-09-12T13:04:25;2.70;;;1.63;;
45893;SDS011;31603;51.148;16.932;2022-09-12T13:06:55;2.33;;;1.40;;
45893;SDS011;31603;51.148;16.932;2022-09-12T13:09:26;2.42;;;1.75;;
45893;SDS011;31603;51.148;16.932;2022-09-12T13:11:57;2.90;;;1.60;;
45893;SDS011;31603;51.148;16.932;2022-09-12T13:14:51;3.17;;;1.92;;
45893;SDS011;31603;51.148;16.932;2022-09-12T13:17:30;3.25;;;1.90;;
45893;SDS011;31603;51.148;16.932;2022-09-12T13:20:06;3.70;;;1.52;;
45893;SDS011;31603;51.148;16.932;2022-09-12T13:22:43;1.90;;;1.67;;
45893;SDS011;31603;51.148;16.932;2022-09-12T13:25:18;3.58;;;2.05;;
45893;SDS011;31603;51.148;16.932;2022-09-12T13:28:01;1.70;;;1.58;;
45893;SDS011;31603;51.148;16.932;2022-09-12T13:30:30;5.85;;;2.08;;
45893;SDS011;31603;51.148;16.932;2022-09-12T13:33:02;2.85;;;1.80;;
45893;SDS011;31603;51.148;16.932;2022-09-12T13:35:38;2.78;;;2.00;;
45893;SDS011;31603;51.148;16.932;2022-09-12T13:38:12;2.47;;;1.92;;
45893;SDS011;31603;51.148;16.932;2022-09-12T13:40:46;2.92;;;1.80;;
45893;SDS011;31603;51.148;16.932;2022-09-12T13:43:28;3.15;;;2.30;;
45893;SDS011;31603;51.148;16.932;2022-09-12T13:46:02;3.47;;;1.98;;
45893;SDS011;31603;51.148;16.932;2022-09-12T13:48:29;3.25;;;2.05;;
45893;SDS011;31603;51.148;16.932;2022-09-12T13:50:56;2.60;;;1.98;;
45893;SDS011;31603;51.148;16.932;2022-09-12T13:53:26;2.03;;;1.50;;
45893;SDS011;31603;51.148;16.932;2022-09-12T13:56:01;2.80;;;2.03;;
45893;SDS011;31603;51.148;16.932;2022-09-12T13:58:30;3.30;;;1.80;;
45893;SDS011;31603;51.148;16.932;2022-09-12T14:00:59;2.17;;;1.60;;
45893;SDS011;31603;51.148;16.932;2022-09-12T14:03:27;2.67;;;1.60;;
45893;SDS011;31603;51.148;16.932;2022-09-12T14:06:13;3.15;;;1.67;;
45893;SDS011;31603;51.148;16.932;2022-09-12T14:08:40;3.70;;;1.80;;
45893;SDS011;31603;51.148;16.932;2022-09-12T14:11:08;8.00;;;1.90;;
45893;SDS011;31603;51.148;16.932;2022-09-12T14:13:36;3.88;;;1.70;;
45893;SDS011;31603;51.148;16.932;2022-09-12T14:16:04;3.83;;;2.75;;
45893;SDS011;31603;51.148;16.932;2022-09-12T14:18:33;2.78;;;1.80;;
45893;SDS011;31603;51.148;16.932;2022-09-12T14:21:05;3.22;;;1.75;;
45893;SDS011;31603;51.148;16.932;2022-09-12T14:23:37;2.22;;;1.90;;
45893;SDS011;31603;51.148;16.932;2022-09-12T14:26:07;4.38;;;1.80;;
45893;SDS011;31603;51.148;16.932;2022-09-12T14:28:37;2.92;;;1.80;;
45893;SDS011;31603;51.148;16.932;2022-09-12T14:31:08;4.28;;;1.90;;
45893;SDS011;31603;51.148;16.932;2022-09-12T14:33:48;3.72;;;1.67;;
45893;SDS011;31603;51.148;16.932;2022-09-12T14:36:18;2.63;;;1.90;;
45893;SDS011;31603;51.148;16.932;2022-09-12T14:41:19;4.18;;;1.92;;
45893;SDS011;31603;51.148;16.932;2022-09-12T14:43:51;4.72;;;1.88;;
45893;SDS011;31603;51.148;16.932;2022-09-12T14:46:21;4.85;;;1.95;;
45893;SDS011;31603;51.148;16.932;2022-09-12T14:48:50;4.15;;;1.60;;
45893;SDS011;31603;51.148;16.932;2022-09-12T14:51:20;3.40;;;1.75;;
45893;SDS011;31603;51.148;16.932;2022-09-12T14:53:50;9.02;;;2.42;;
45893;SDS011;31603;51.148;16.932;2022-09-12T14:56:16;3.17;;;2.20;;
45893;SDS011;31603;51.148;16.932;2022-09-12T14:58:46;6.70;;;2.65;;
45893;SDS011;31603;51.148;16.932;2022-09-12T15:01:23;8.75;;;3.63;;
45893;SDS011;31603;51.148;16.932;2022-09-12T15:03:51;5.47;;;3.00;;
45893;SDS011;31603;51.148;16.932;2022-09-12T15:06:20;9.80;;;4.78;;
45893;SDS011;31603;51.148;16.932;2022-09-12T15:08:49;3.45;;;2.28;;
45893;SDS011;31603;51.148;16.932;2022-09-12T15:11:18;5.00;;;2.00;;